sensor_id;sensor_type;location;lat;lon;timestamp;P1;durP1;ratioP1;P2;durP2;ratioP2
33160;SDS011;19522;45.656;11.302;2022-09-03T00:01:27;6.20;;;3.35;;
33160;SDS011;19522;45.656;11.302;2022-09-03T00:04:23;7.00;;;3.47;;
33160;SDS011;19522;45.656;11.302;2022-09-03T00:07:02;4.18;;;3.42;;
33160;SDS011;19522;45.656;11.302;2022-09-03T00:09:35;4.57;;;3.50;;
33160;SDS011;19522;45.656;11.302;2022-09-03T00:12:13;8.25;;;3.08;;
33160;SDS011;19522;45.656;11.302;2022-09-03T00:14:49;7.70;;;3.45;;
33160;SDS011;19522;45.656;11.302;2022-09-03T00:17:21;7.32;;;3.58;;
33160;SDS011;19522;45.656;11.302;2022-09-03T00:19:53;5.57;;;3.47;;
33160;SDS011;19522;45.656;11.302;2022-09-03T00:22:32;5.03;;;3.20;;
33160;SDS011;19522;45.656;11.302;2022-09-03T00:25:02;4.82;;;3.00;;
33160;SDS011;19522;45.656;11.302;2022-09-03T00:27:32;5.18;;;3.33;;
33160;SDS011;19522;45.656;11.302;2022-09-03T00:30:04;5.30;;;3.13;;
33160;SDS011;19522;45.656;11.302;2022-09-03T00:32:50;5.10;;;3.25;;
33160;SDS011;19522;45.656;11.302;2022-09-03T00:35:27;5.35;;;3.60;;
33160;SDS011;19522;45.656;11.302;2022-09-03T00:37:56;4.45;;;3.20;;
33160;SDS011;19522;45.656;11.302;2022-09-03T00:51:55;5.57;;;3.20;;
33160;SDS011;19522;45.656;11.302;2022-09-03T00:57:50;4.38;;;3.00;;
33160;SDS011;19522;45.656;11.302;2022-09-03T01:00:37;5.03;;;2.80;;
33160;SDS011;19522;45.656;11.302;2022-09-03T01:03:11;3.42;;;2.58;;
33160;SDS011;19522;45.656;11.302;2022-09-03T01:16:39;7.22;;;3.28;;
33160;SDS011;19522;45.656;11.302;2022-09-03T01:35:26;8.95;;;3.28;;
33160;SDS011;19522;45.656;11.302;2022-09-03T01:38:04;5.22;;;3.05;;
33160;SDS011;19522;45.656;11.302;2022-09-03T01:46:39;7.63;;;3.25;;
33160;SDS011;19522;45.656;11.302;2022-09-03T01:49:00;6.30;;;3.10;;
33160;SDS011;19522;45.656;11.302;2022-09-03T01:51:42;5.75;;;2.70;;
33160;SDS011;19522;45.656;11.302;2022-09-03T02:01:56;4.15;;;2.58;;
33160;SDS011;19522;45.656;11.302;2022-09-03T02:04:26;4.07;;;3.00;;
33160;SDS011;19522;45.656;11.302;2022-09-03T02:06:53;4.53;;;2.88;;
33160;SDS011;19522;45.656;11.302;2022-09-03T02:09:21;7.43;;;3.60;;
33160;SDS011;19522;45.656;11.302;2022-09-03T02:11:53;4.60;;;2.88;;
33160;SDS011;19522;45.656;11.302;2022-09-03T02:14:27;10.60;;;3.30;;
33160;SDS011;19522;45.656;11.302;2022-09-03T02:16:54;8.77;;;2.90;;
33160;SDS011;19522;45.656;11.302;2022-09-03T02:19:22;4.53;;;3.10;;
33160;SDS011;19522;45.656;11.302;2022-09-03T02:21:52;4.88;;;3.25;;
33160;SDS011;19522;45.656;11.302;2022-09-03T02:24:19;4.68;;;3.20;;
33160;SDS011;19522;45.656;11.302;2022-09-03T02:26:45;6.25;;;3.17;;
33160;SDS011;19522;45.656;11.302;2022-09-03T02:29:11;4.60;;;3.03;;
33160;SDS011;19522;45.656;11.302;2022-09-03T02:31:38;8.68;;;3.00;;
33160;SDS011;19522;45.656;11.302;2022-09-03T02:34:03;7.72;;;2.97;;
33160;SDS011;19522;45.656;11.302;2022-09-03T02:36:34;6.28;;;3.30;;
33160;SDS011;19522;45.656;11.302;2022-09-03T02:39:03;5.30;;;3.30;;
33160;SDS011;19522;45.656;11.302;2022-09-03T02:41:29;6.18;;;3.28;;
33160;SDS011;19522;45.656;11.302;2022-09-03T02:44:03;4.20;;;2.97;;
33160;SDS011;19522;45.656;11.302;2022-09-03T02:46:34;6.35;;;3.35;;
33160;SDS011;19522;45.656;11.302;2022-09-03T02:49:06;6.95;;;3.20;;
33160;SDS011;19522;45.656;11.302;2022-09-03T02:51:33;4.10;;;2.80;;
33160;SDS011;19522;45.656;11.302;2022-09-03T02:54:03;4.50;;;3.13;;
33160;SDS011;19522;45.656;11.302;2022-09-03T02:56:29;5.28;;;3.22;;
33160;SDS011;19522;45.656;11.302;2022-09-03T02:58:55;3.40;;;2.67;;
33160;SDS011;19522;45.656;11.302;2022-09-03T03:01:21;6.22;;;2.95;;
33160;SDS011;19522;45.656;11.302;2022-09-03T03:03:47;7.68;;;3.00;;
33160;SDS011;19522;45.656;11.302;2022-09-03T03:06:15;5.43;;;3.78;;
33160;SDS011;19522;45.656;11.302;2022-09-03T03:08:40;5.70;;;3.35;;
33160;SDS011;19522;45.656;11.302;2022-09-03T03:11:08;7.38;;;3.05;;
33160;SDS011;19522;45.656;11.302;2022-09-03T03:13:33;8.32;;;3.70;;
33160;SDS011;19522;45.656;11.302;2022-09-03T03:16:00;5.88;;;3.47;;
33160;SDS011;19522;45.656;11.302;2022-09-03T03:18:27;5.15;;;2.95;;
33160;SDS011;19522;45.656;11.302;2022-09-03T03:20:53;4.43;;;3.20;;
33160;SDS011;19522;45.656;11.302;2022-09-03T03:23:19;5.40;;;3.33;;
33160;SDS011;19522;45.656;11.302;2022-09-03T03:25:45;6.53;;;3.13;;
33160;SDS011;19522;45.656;11.302;2022-09-03T03:28:10;5.25;;;3.40;;
33160;SDS011;19522;45.656;11.302;2022-09-03T03:30:37;4.07;;;3.20;;
33160;SDS011;19522;45.656;11.302;2022-09-03T03:33:04;6.85;;;3.53;;
33160;SDS011;19522;45.656;11.302;2022-09-03T03:35:30;4.25;;;3.10;;
33160;SDS011;19522;45.656;11.302;2022-09-03T03:37:56;7.28;;;3.00;;
33160;SDS011;19522;45.656;11.302;2022-09-03T03:40:22;4.30;;;3.20;;
33160;SDS011;19522;45.656;11.302;2022-09-03T03:42:48;7.82;;;4.15;;
33160;SDS011;19522;45.656;11.302;2022-09-03T03:45:14;5.10;;;2.90;;
33160;SDS011;19522;45.656;11.302;2022-09-03T03:47:39;7.00;;;3.40;;
33160;SDS011;19522;45.656;11.302;2022-09-03T03:50:05;7.97;;;3.85;;
33160;SDS011;19522;45.656;11.302;2022-09-03T03:52:31;6.30;;;3.00;;
33160;SDS011;19522;45.656;11.302;2022-09-03T03:54:56;3.83;;;3.20;;
33160;SDS011;19522;45.656;11.302;2022-09-03T03:57:22;4.60;;;3.35;;
33160;SDS011;19522;45.656;11.302;2022-09-03T03:59:48;4.25;;;3.25;;
33160;SDS011;19522;45.656;11.302;2022-09-03T04:02:14;10.13;;;3.75;;
33160;SDS011;19522;45.656;11.302;2022-09-03T04:04:40;6.57;;;3.17;;
33160;SDS011;19522;45.656;11.302;2022-09-03T04:07:06;8.50;;;3.08;;
33160;SDS011;19522;45.656;11.302;2022-09-03T04:09:32;5.70;;;2.88;;
33160;SDS011;19522;45.656;11.302;2022-09-03T04:11:58;8.27;;;3.17;;
33160;SDS011;19522;45.656;11.302;2022-09-03T04:14:24;5.30;;;2.55;;
33160;SDS011;19522;45.656;11.302;2022-09-03T04:16:51;8.27;;;3.05;;
33160;SDS011;19522;45.656;11.302;2022-09-03T04:19:17;5.30;;;3.55;;
33160;SDS011;19522;45.656;11.302;2022-09-03T04:21:43;6.57;;;2.97;;
33160;SDS011;19522;45.656;11.302;2022-09-03T04:24:09;6.13;;;3.17;;
33160;SDS011;19522;45.656;11.302;2022-09-03T04:26:35;5.15;;;3.35;;
33160;SDS011;19522;45.656;11.302;2022-09-03T04:29:02;5.80;;;3.17;;
33160;SDS011;19522;45.656;11.302;2022-09-03T04:31:30;3.95;;;2.80;;
33160;SDS011;19522;45.656;11.302;2022-09-03T04:33:56;4.53;;;3.25;;
33160;SDS011;19522;45.656;11.302;2022-09-03T04:36:22;5.93;;;3.05;;
33160;SDS011;19522;45.656;11.302;2022-09-03T04:38:50;3.95;;;2.88;;
33160;SDS011;19522;45.656;11.302;2022-09-03T04:41:22;3.65;;;2.45;;
33160;SDS011;19522;45.656;11.302;2022-09-03T04:43:50;3.95;;;2.80;;
33160;SDS011;19522;45.656;11.302;2022-09-03T04:46:20;4.68;;;2.65;;
33160;SDS011;19522;45.656;11.302;2022-09-03T04:48:48;4.13;;;2.60;;
33160;SDS011;19522;45.656;11.302;2022-09-03T04:51:16;3.78;;;2.60;;
33160;SDS011;19522;45.656;11.302;2022-09-03T04:53:46;3.53;;;2.55;;
33160;SDS011;19522;45.656;11.302;2022-09-03T04:56:18;5.63;;;3.13;;
33160;SDS011;19522;45.656;11.302;2022-09-03T04:58:52;3.95;;;2.80;;
33160;SDS011;19522;45.656;11.302;2022-09-03T05:01:23;4.22;;;2.50;;
33160;SDS011;19522;45.656;11.302;2022-09-03T05:03:49;8.45;;;3.72;;
33160;SDS011;19522;45.656;11.302;2022-09-03T05:06:18;5.85;;;3.70;;
33160;SDS011;19522;45.656;11.302;2022-09-03T05:08:48;5.43;;;3.28;;
33160;SDS011;19522;45.656;11.302;2022-09-03T05:11:14;4.63;;;2.80;;
33160;SDS011;19522;45.656;11.302;2022-09-03T05:13:40;5.50;;;3.08;;
33160;SDS011;19522;45.656;11.302;2022-09-03T05:16:06;3.83;;;2.50;;
33160;SDS011;19522;45.656;11.302;2022-09-03T05:18:34;8.60;;;3.13;;
33160;SDS011;19522;45.656;11.302;2022-09-03T05:21:00;3.53;;;2.80;;
33160;SDS011;19522;45.656;11.302;2022-09-03T05:23:30;4.13;;;2.60;;
33160;SDS011;19522;45.656;11.302;2022-09-03T05:26:00;4.82;;;2.65;;
33160;SDS011;19522;45.656;11.302;2022-09-03T05:28:29;4.97;;;2.80;;
33160;SDS011;19522;45.656;11.302;2022-09-03T05:31:01;4.93;;;2.85;;
33160;SDS011;19522;45.656;11.302;2022-09-03T05:33:35;3.33;;;2.70;;
33160;SDS011;19522;45.656;11.302;2022-09-03T05:36:03;4.85;;;1.98;;
33160;SDS011;19522;45.656;11.302;2022-09-03T05:38:30;4.20;;;2.70;;
33160;SDS011;19522;45.656;11.302;2022-09-03T05:41:03;4.05;;;2.92;;
33160;SDS011;19522;45.656;11.302;2022-09-03T05:43:30;6.85;;;3.47;;
33160;SDS011;19522;45.656;11.302;2022-09-03T05:45:57;3.42;;;2.60;;
33160;SDS011;19522;45.656;11.302;2022-09-03T05:48:28;4.40;;;2.92;;
33160;SDS011;19522;45.656;11.302;2022-09-03T05:51:01;5.15;;;2.80;;
33160;SDS011;19522;45.656;11.302;2022-09-03T05:53:29;3.22;;;2.47;;
33160;SDS011;19522;45.656;11.302;2022-09-03T05:55:57;7.95;;;2.80;;
33160;SDS011;19522;45.656;11.302;2022-09-03T05:58:24;7.22;;;2.88;;
33160;SDS011;19522;45.656;11.302;2022-09-03T06:00:54;3.38;;;2.40;;
33160;SDS011;19522;45.656;11.302;2022-09-03T06:03:19;5.75;;;2.55;;
33160;SDS011;19522;45.656;11.302;2022-09-03T06:05:52;4.15;;;2.53;;
33160;SDS011;19522;45.656;11.302;2022-09-03T06:08:21;5.30;;;2.53;;
33160;SDS011;19522;45.656;11.302;2022-09-03T06:10:47;6.85;;;3.03;;
33160;SDS011;19522;45.656;11.302;2022-09-03T06:13:12;5.45;;;3.40;;
33160;SDS011;19522;45.656;11.302;2022-09-03T06:15:38;7.13;;;3.60;;
33160;SDS011;19522;45.656;11.302;2022-09-03T06:18:03;4.30;;;2.70;;
33160;SDS011;19522;45.656;11.302;2022-09-03T06:20:29;5.18;;;2.88;;
33160;SDS011;19522;45.656;11.302;2022-09-03T06:22:56;5.22;;;2.70;;
33160;SDS011;19522;45.656;11.302;2022-09-03T06:25:21;3.33;;;2.75;;
33160;SDS011;19522;45.656;11.302;2022-09-03T06:27:47;3.30;;;2.60;;
33160;SDS011;19522;45.656;11.302;2022-09-03T12:09:51;5.20;;;2.15;;
33160;SDS011;19522;45.656;11.302;2022-09-03T12:20:59;2.08;;;1.45;;
33160;SDS011;19522;45.656;11.302;2022-09-03T12:23:28;3.60;;;1.92;;
33160;SDS011;19522;45.656;11.302;2022-09-03T12:26:03;7.10;;;2.10;;
33160;SDS011;19522;45.656;11.302;2022-09-03T12:28:33;5.53;;;2.00;;
33160;SDS011;19522;45.656;11.302;2022-09-03T12:31:08;6.63;;;2.22;;
33160;SDS011;19522;45.656;11.302;2022-09-03T12:33:46;4.80;;;2.28;;
33160;SDS011;19522;45.656;11.302;2022-09-03T12:36:13;3.85;;;2.10;;
33160;SDS011;19522;45.656;11.302;2022-09-03T12:38:38;4.30;;;1.90;;
33160;SDS011;19522;45.656;11.302;2022-09-03T12:41:04;3.55;;;1.95;;
33160;SDS011;19522;45.656;11.302;2022-09-03T12:43:30;2.78;;;1.77;;
33160;SDS011;19522;45.656;11.302;2022-09-03T12:45:55;4.65;;;2.33;;
33160;SDS011;19522;45.656;11.302;2022-09-03T12:48:21;4.10;;;2.10;;
33160;SDS011;19522;45.656;11.302;2022-09-03T12:50:48;3.97;;;2.05;;
33160;SDS011;19522;45.656;11.302;2022-09-03T12:53:25;5.38;;;2.10;;
33160;SDS011;19522;45.656;11.302;2022-09-03T12:55:54;5.63;;;2.20;;
33160;SDS011;19522;45.656;11.302;2022-09-03T12:58:23;11.68;;;2.72;;
33160;SDS011;19522;45.656;11.302;2022-09-03T13:01:06;5.72;;;2.10;;
33160;SDS011;19522;45.656;11.302;2022-09-03T13:06:06;2.20;;;1.52;;
33160;SDS011;19522;45.656;11.302;2022-09-03T13:08:40;5.28;;;1.98;;
33160;SDS011;19522;45.656;11.302;2022-09-03T13:11:14;6.68;;;2.20;;
33160;SDS011;19522;45.656;11.302;2022-09-03T13:13:49;3.97;;;2.03;;
33160;SDS011;19522;45.656;11.302;2022-09-03T13:48:03;5.22;;;2.22;;
33160;SDS011;19522;45.656;11.302;2022-09-03T13:51:12;2.83;;;2.00;;
33160;SDS011;19522;45.656;11.302;2022-09-03T14:04:58;4.20;;;1.90;;
33160;SDS011;19522;45.656;11.302;2022-09-03T14:12:54;4.30;;;1.80;;
33160;SDS011;19522;45.656;11.302;2022-09-03T14:15:45;3.55;;;1.75;;
33160;SDS011;19522;45.656;11.302;2022-09-03T14:21:21;3.58;;;2.00;;
33160;SDS011;19522;45.656;11.302;2022-09-03T14:27:21;2.78;;;1.83;;
33160;SDS011;19522;45.656;11.302;2022-09-03T14:30:01;7.95;;;1.95;;
33160;SDS011;19522;45.656;11.302;2022-09-03T14:32:42;4.45;;;1.98;;
33160;SDS011;19522;45.656;11.302;2022-09-03T14:35:31;4.93;;;2.00;;
33160;SDS011;19522;45.656;11.302;2022-09-03T14:49:34;39.58;;;4.88;;
33160;SDS011;19522;45.656;11.302;2022-09-03T14:57:47;3.95;;;1.95;;
33160;SDS011;19522;45.656;11.302;2022-09-03T15:06:10;4.22;;;2.20;;
33160;SDS011;19522;45.656;11.302;2022-09-03T15:09:58;3.85;;;2.05;;
33160;SDS011;19522;45.656;11.302;2022-09-03T15:12:24;2.83;;;1.75;;
33160;SDS011;19522;45.656;11.302;2022-09-03T15:14:59;4.60;;;1.98;;
33160;SDS011;19522;45.656;11.302;2022-09-03T15:33:50;4.22;;;2.53;;
33160;SDS011;19522;45.656;11.302;2022-09-03T15:36:23;6.78;;;2.95;;
33160;SDS011;19522;45.656;11.302;2022-09-03T15:39:23;3.35;;;2.50;;
33160;SDS011;19522;45.656;11.302;2022-09-03T15:41:56;3.75;;;2.33;;
33160;SDS011;19522;45.656;11.302;2022-09-03T15:44:23;2.80;;;2.17;;
33160;SDS011;19522;45.656;11.302;2022-09-03T15:46:58;6.63;;;2.28;;
33160;SDS011;19522;45.656;11.302;2022-09-03T15:55:24;6.43;;;2.13;;
33160;SDS011;19522;45.656;11.302;2022-09-03T16:00:59;4.20;;;2.30;;
33160;SDS011;19522;45.656;11.302;2022-09-03T16:09:21;3.33;;;2.00;;
33160;SDS011;19522;45.656;11.302;2022-09-03T16:20:21;5.65;;;2.58;;
33160;SDS011;19522;45.656;11.302;2022-09-03T16:28:27;5.57;;;2.63;;
33160;SDS011;19522;45.656;11.302;2022-09-03T16:34:01;3.72;;;2.53;;
33160;SDS011;19522;45.656;11.302;2022-09-03T16:36:59;5.20;;;2.40;;
33160;SDS011;19522;45.656;11.302;2022-09-03T16:50:51;3.13;;;2.25;;
33160;SDS011;19522;45.656;11.302;2022-09-03T16:59:26;6.20;;;2.83;;
33160;SDS011;19522;45.656;11.302;2022-09-03T17:05:18;8.82;;;2.95;;
33160;SDS011;19522;45.656;11.302;2022-09-03T17:16:12;3.63;;;2.97;;
33160;SDS011;19522;45.656;11.302;2022-09-03T17:19:42;4.93;;;2.90;;
33160;SDS011;19522;45.656;11.302;2022-09-03T17:21:47;5.28;;;2.63;;
33160;SDS011;19522;45.656;11.302;2022-09-03T17:24:45;5.35;;;3.55;;
33160;SDS011;19522;45.656;11.302;2022-09-03T17:36:29;7.68;;;6.00;;
33160;SDS011;19522;45.656;11.302;2022-09-03T17:42:00;7.47;;;5.30;;
33160;SDS011;19522;45.656;11.302;2022-09-03T17:49:45;5.47;;;4.55;;
33160;SDS011;19522;45.656;11.302;2022-09-03T17:52:21;8.13;;;5.47;;
33160;SDS011;19522;45.656;11.302;2022-09-03T17:54:54;7.32;;;5.18;;
33160;SDS011;19522;45.656;11.302;2022-09-03T17:57:28;7.25;;;5.75;;
33160;SDS011;19522;45.656;11.302;2022-09-03T18:00:04;7.32;;;5.80;;
33160;SDS011;19522;45.656;11.302;2022-09-03T18:05:25;8.13;;;6.60;;
33160;SDS011;19522;45.656;11.302;2022-09-03T18:16:38;8.52;;;5.68;;
33160;SDS011;19522;45.656;11.302;2022-09-03T18:22:53;7.45;;;5.25;;
33160;SDS011;19522;45.656;11.302;2022-09-03T18:25:41;6.78;;;5.53;;
33160;SDS011;19522;45.656;11.302;2022-09-03T18:28:39;8.30;;;5.78;;
33160;SDS011;19522;45.656;11.302;2022-09-03T18:31:29;7.30;;;5.90;;
33160;SDS011;19522;45.656;11.302;2022-09-03T18:34:13;7.47;;;5.82;;
33160;SDS011;19522;45.656;11.302;2022-09-03T18:37:00;8.02;;;5.88;;
33160;SDS011;19522;45.656;11.302;2022-09-03T18:39:44;7.18;;;5.82;;
33160;SDS011;19522;45.656;11.302;2022-09-03T18:52:20;8.35;;;5.13;;
33160;SDS011;19522;45.656;11.302;2022-09-03T18:55:25;5.30;;;4.22;;
33160;SDS011;19522;45.656;11.302;2022-09-03T19:10:50;6.10;;;3.40;;
33160;SDS011;19522;45.656;11.302;2022-09-03T19:13:40;3.88;;;2.80;;
33160;SDS011;19522;45.656;11.302;2022-09-03T19:16:32;4.50;;;2.80;;
33160;SDS011;19522;45.656;11.302;2022-09-03T19:19:39;6.50;;;2.80;;
33160;SDS011;19522;45.656;11.302;2022-09-03T19:22:34;4.47;;;2.70;;
33160;SDS011;19522;45.656;11.302;2022-09-03T19:25:20;3.97;;;2.40;;
33160;SDS011;19522;45.656;11.302;2022-09-03T19:31:08;5.28;;;2.75;;
33160;SDS011;19522;45.656;11.302;2022-09-03T19:37:36;3.55;;;2.60;;
33160;SDS011;19522;45.656;11.302;2022-09-03T19:49:36;6.82;;;3.72;;
33160;SDS011;19522;45.656;11.302;2022-09-03T19:55:51;5.20;;;3.47;;
33160;SDS011;19522;45.656;11.302;2022-09-03T19:58:40;3.55;;;2.88;;
33160;SDS011;19522;45.656;11.302;2022-09-03T20:01:33;7.45;;;4.32;;
33160;SDS011;19522;45.656;11.302;2022-09-03T20:04:20;6.15;;;3.47;;
33160;SDS011;19522;45.656;11.302;2022-09-03T20:07:12;5.53;;;3.63;;
33160;SDS011;19522;45.656;11.302;2022-09-03T20:09:56;3.77;;;2.60;;
33160;SDS011;19522;45.656;11.302;2022-09-03T20:12:46;5.28;;;3.05;;
33160;SDS011;19522;45.656;11.302;2022-09-03T20:15:17;6.22;;;3.03;;
33160;SDS011;19522;45.656;11.302;2022-09-03T20:20:43;4.68;;;3.33;;
33160;SDS011;19522;45.656;11.302;2022-09-03T20:23:27;4.22;;;3.17;;
33160;SDS011;19522;45.656;11.302;2022-09-03T20:31:29;4.00;;;2.80;;
33160;SDS011;19522;45.656;11.302;2022-09-03T20:47:40;5.63;;;2.97;;
33160;SDS011;19522;45.656;11.302;2022-09-03T20:53:03;5.00;;;3.35;;
33160;SDS011;19522;45.656;11.302;2022-09-03T20:55:54;3.90;;;3.50;;
33160;SDS011;19522;45.656;11.302;2022-09-03T21:01:40;5.53;;;3.63;;
33160;SDS011;19522;45.656;11.302;2022-09-03T21:17:44;5.68;;;3.40;;
33160;SDS011;19522;45.656;11.302;2022-09-03T21:25:21;4.35;;;3.40;;
33160;SDS011;19522;45.656;11.302;2022-09-03T21:28:02;5.22;;;2.95;;
33160;SDS011;19522;45.656;11.302;2022-09-03T21:30:32;4.75;;;3.60;;
33160;SDS011;19522;45.656;11.302;2022-09-03T21:33:12;6.88;;;3.75;;
33160;SDS011;19522;45.656;11.302;2022-09-03T21:35:44;5.85;;;3.50;;
33160;SDS011;19522;45.656;11.302;2022-09-03T21:38:16;7.00;;;3.20;;
33160;SDS011;19522;45.656;11.302;2022-09-03T21:40:51;3.65;;;3.22;;
33160;SDS011;19522;45.656;11.302;2022-09-03T21:43:23;4.72;;;3.40;;
33160;SDS011;19522;45.656;11.302;2022-09-03T21:48:34;4.65;;;3.50;;
33160;SDS011;19522;45.656;11.302;2022-09-03T21:51:17;6.82;;;3.75;;
33160;SDS011;19522;45.656;11.302;2022-09-03T21:53:58;4.50;;;3.40;;
33160;SDS011;19522;45.656;11.302;2022-09-03T21:56:34;5.13;;;3.92;;
33160;SDS011;19522;45.656;11.302;2022-09-03T22:02:10;4.75;;;3.30;;
33160;SDS011;19522;45.656;11.302;2022-09-03T22:04:54;5.63;;;3.65;;
33160;SDS011;19522;45.656;11.302;2022-09-03T22:13:16;3.78;;;3.25;;
33160;SDS011;19522;45.656;11.302;2022-09-03T22:15:46;5.47;;;3.65;;
33160;SDS011;19522;45.656;11.302;2022-09-03T22:20:55;4.75;;;3.85;;
33160;SDS011;19522;45.656;11.302;2022-09-03T22:26:24;7.85;;;3.50;;
33160;SDS011;19522;45.656;11.302;2022-09-03T22:31:47;4.25;;;3.33;;
33160;SDS011;19522;45.656;11.302;2022-09-03T22:40:04;6.30;;;3.92;;
33160;SDS011;19522;45.656;11.302;2022-09-03T22:42:49;5.00;;;3.58;;
33160;SDS011;19522;45.656;11.302;2022-09-03T22:50:59;8.68;;;3.90;;
33160;SDS011;19522;45.656;11.302;2022-09-03T22:53:49;5.32;;;3.40;;
33160;SDS011;19522;45.656;11.302;2022-09-03T22:56:29;4.45;;;3.70;;
33160;SDS011;19522;45.656;11.302;2022-09-03T22:59:15;5.13;;;4.30;;
33160;SDS011;19522;45.656;11.302;2022-09-03T23:02:10;5.50;;;3.50;;
33160;SDS011;19522;45.656;11.302;2022-09-03T23:07:56;6.00;;;3.58;;
33160;SDS011;19522;45.656;11.302;2022-09-03T23:10:25;7.68;;;5.45;;
33160;SDS011;19522;45.656;11.302;2022-09-03T23:15:40;9.27;;;5.30;;
33160;SDS011;19522;45.656;11.302;2022-09-03T23:18:11;4.93;;;4.13;;
33160;SDS011;19522;45.656;11.302;2022-09-03T23:20:43;7.10;;;4.30;;
33160;SDS011;19522;45.656;11.302;2022-09-03T23:23:16;7.90;;;4.95;;
33160;SDS011;19522;45.656;11.302;2022-09-03T23:25:54;7.05;;;3.97;;
33160;SDS011;19522;45.656;11.302;2022-09-03T23:28:36;10.38;;;4.20;;
33160;SDS011;19522;45.656;11.302;2022-09-03T23:31:22;4.70;;;4.20;;
33160;SDS011;19522;45.656;11.302;2022-09-03T23:33:49;5.80;;;3.60;;
33160;SDS011;19522;45.656;11.302;2022-09-03T23:47:41;4.40;;;3.47;;
33160;SDS011;19522;45.656;11.302;2022-09-03T23:56:00;6.82;;;3.88;;
